Sneads, FL (32460)

5:25 AM CDT on September 30, 2014 (GMT -0500)
Cypress | Change Station
CLOSE
Current Station
Personal Weather Station
Location: Marianna, FL
Elevation: 138 ft
Nearby Weather Stations

Elev 138 ft 30.67 °N, 85.07 °W | Updated 10 seconds ago

Overcast
Overcast
71.8 °F
Feels Like 71.8 °F
N
3.5
Wind Variable Wind from NNE
Gusts 5.0 mph

Today
High -- | Low -- °F
--% Chance of Precip.
Yesterday
High -- | Low -- °F
Precip. -- in
6:32 AM 6:26 PM
Waxing Crescent, 35% visible
Pressure 29.86 in
Visibility 10.0 miles
Clouds Overcast 1600 ft
Dew Point 71 °F
Humidity 97%
Rainfall 0.00 in
Snow Depth Not available.
UV 0 out of 12
Pollen .90 out of 12
Air Quality Not available.
Flu Activity Not available.
METAR KMAI 300953Z AUTO 01003KT 10SM OVC016 22/22 A2986 RMK AO2 SLP111 T02220217

More Conditions Fewer Conditions

Pressure 29.86 in
Visibility 10.0 miles
Clouds Overcast 1600 ft
Dew Point 71 °F
Humidity 97%
Rainfall 0.00 in
Snow Depth Not available.
UV 0 out of 12
Pollen .90 out of 12
Air Quality Not available.
Flu Activity Not available.
METAR KMAI 300953Z AUTO 01003KT 10SM OVC016 22/22 A2986 RMK AO2 SLP111 T02220217

More Conditions Fewer Conditions

10-Day Weather Forecast

Almanac

Astronomy

Sep. 30, 2014 Rise Set
Actual Time 6:32 AM CDT 6:26 PM CDT
Civil Twilight 6:08 AM CDT 6:50 PM CDT
Nautical Twilight 5:40 AM CDT 7:18 PM CDT
Astronomical Twilight 5:12 AM CDT 7:46 PM CDT
Moon 12:22 PM CDT 11:13 PM CDT
Length of Visible Light 12h 41m
Length of Day
11h 53m
Tomorrow will be 1m 51s shorter.
Waxing Crescent, 35% of the Moon is Illuminated
Today
Waxing Crescent
Oct 1
First Quarter
Oct 8
Full
Oct 15
Last Quarter
Oct 23
New

Today's Extremes

State Highs State Lows

Community

WunderPhotos

Upload Photos

1,757,610 photos uploaded!

WunderBlogs® & News

Nearby

Snow Depth

Station Depth Elevation
No new snow has been reported.

Earthquake Activity

City Distance Mag. Time & Date
No recent earthquake activity has been reported nearby.
Minimum magnitude displayed is 2.5.

Coastal Water Temperatures

Place Temperature
No Stations Reporting

Nearby Weather Stations